createdAt,value
2018-06-22T00:00:59.729Z,71.12
2018-06-22T00:02:04.399Z,70.33
2018-06-22T00:03:08.941Z,70.81
2018-06-22T00:04:13.596Z,70.84
2018-06-22T00:05:18.516Z,70.89
2018-06-22T00:06:23.148Z,71.14
2018-06-22T00:07:28.851Z,70.68
2018-06-22T00:08:33.476Z,70.73
2018-06-22T00:09:38.848Z,70.76
2018-06-22T00:10:43.521Z,71.03
2018-06-22T00:11:49.417Z,70.87
2018-06-22T00:12:54.139Z,71.01
2018-06-22T00:13:58.919Z,71.34
2018-06-22T00:15:03.544Z,71.55
2018-06-22T00:16:09.421Z,71.83
2018-06-22T00:17:14.323Z,71.67
2018-06-22T00:18:21.871Z,71.95
2018-06-22T00:19:26.838Z,72.01
2018-06-22T00:20:33.736Z,71.72
2018-06-22T00:21:38.395Z,72.06
2018-06-22T00:22:43.429Z,72.28
2018-06-22T00:23:48.205Z,72.20
2018-06-22T00:24:56.017Z,72.41
2018-06-22T00:26:01.189Z,72.82
2018-06-22T00:27:07.549Z,72.62
2018-06-22T00:28:12.201Z,72.47
2018-06-22T00:29:17.436Z,72.78
2018-06-22T00:30:23.901Z,72.78
2018-06-22T00:31:28.839Z,72.95
2018-06-22T00:32:33.494Z,72.89
2018-06-22T00:33:38.841Z,72.90
2018-06-22T00:34:44.238Z,73.08
2018-06-22T00:35:49.832Z,73.12
2018-06-22T00:36:55.597Z,73.41
2018-06-22T00:38:00.524Z,73.23
2018-06-22T00:39:07.641Z,73.46
2018-06-22T00:40:12.271Z,73.54
2018-06-22T00:41:16.913Z,73.92
2018-06-22T00:42:21.727Z,74.11
2018-06-22T00:43:27.146Z,74.09
2018-06-22T00:44:32.149Z,74.64
2018-06-22T00:45:36.917Z,74.70
2018-06-22T00:46:42.251Z,74.37
2018-06-22T00:47:46.961Z,74.48
2018-06-22T00:48:51.622Z,75.01
2018-06-22T00:49:56.219Z,75.18
2018-06-22T00:51:01.157Z,75.11
2018-06-22T00:52:05.805Z,75.01
2018-06-22T00:53:16.885Z,75.36
2018-06-22T00:54:22.732Z,75.29
2018-06-22T00:55:27.382Z,75.37
2018-06-22T00:56:33.609Z,75.64
2018-06-22T00:57:38.552Z,75.69
2018-06-22T00:58:43.533Z,75.79
2018-06-22T00:59:50.700Z,76.02
2018-06-22T01:00:56.441Z,75.56
2018-06-22T01:02:02.781Z,75.97
2018-06-22T01:03:10.780Z,76.14
2018-06-22T01:04:16.225Z,76.02
2018-06-22T01:05:21.175Z,75.93
2018-06-22T01:06:25.850Z,75.98
2018-06-22T01:07:30.642Z,75.72
2018-06-22T01:08:35.326Z,75.71
2018-06-22T01:09:41.666Z,75.68
2018-06-22T01:10:48.100Z,75.85
2018-06-22T01:11:52.795Z,75.84
2018-06-22T01:12:58.475Z,76.13
2018-06-22T01:14:04.034Z,75.91
2018-06-22T01:15:11.861Z,75.98
2018-06-22T01:16:17.780Z,76.04
2018-06-22T01:17:22.555Z,76.38
2018-06-22T01:18:28.143Z,76.20
2018-06-22T01:19:34.299Z,76.23
2018-06-22T01:20:39.183Z,76.43
2018-06-22T01:21:43.899Z,76.45
2018-06-22T01:22:48.989Z,76.20
2018-06-22T01:23:53.735Z,76.10
2018-06-22T01:24:59.683Z,76.37
2018-06-22T01:26:07.364Z,76.14
2018-06-22T01:27:13.258Z,76.35
2018-06-22T01:28:17.937Z,76.33
2018-06-22T01:29:27.762Z,76.47
2018-06-22T01:30:32.402Z,76.43
2018-06-22T01:31:37.554Z,76.61
2018-06-22T01:32:42.333Z,76.55
2018-06-22T01:33:48.280Z,76.35
2018-06-22T01:34:55.209Z,76.68
2018-06-22T01:36:00.932Z,76.50
2018-06-22T01:37:05.649Z,76.55
2018-06-22T01:38:10.401Z,76.83
2018-06-22T01:39:15.498Z,76.74
2018-06-22T01:40:20.619Z,76.85
2018-06-22T01:41:27.110Z,76.46
2018-06-22T01:42:32.865Z,76.67
2018-06-22T01:43:37.623Z,77.33
2018-06-22T01:44:42.406Z,76.61
2018-06-22T01:45:48.850Z,76.49
2018-06-22T01:46:53.605Z,77.16
2018-06-22T01:47:58.364Z,77.23
2018-06-22T01:49:03.358Z,76.92
2018-06-22T01:50:08.134Z,77.12
2018-06-22T01:51:12.904Z,77.23
2018-06-22T01:52:17.832Z,77.24
2018-06-22T01:53:22.661Z,77.06
2018-06-22T01:54:28.030Z,76.65
2018-06-22T01:55:33.054Z,77.08
2018-06-22T01:56:37.807Z,77.08
2018-06-22T01:57:42.554Z,77.03
2018-06-22T01:58:47.327Z,76.89
2018-06-22T01:59:51.947Z,77.03
2018-06-22T02:00:56.601Z,77.41
2018-06-22T02:02:01.491Z,77.63
2018-06-22T02:03:06.142Z,77.42
2018-06-22T02:04:10.725Z,77.15
2018-06-22T02:05:15.393Z,77.39
2018-06-22T02:06:20.007Z,77.50
2018-06-22T02:07:24.721Z,77.58
2018-06-22T02:08:29.732Z,77.25
2018-06-22T02:09:34.419Z,77.95
2018-06-22T02:10:39.143Z,78.34
2018-06-22T02:11:43.859Z,78.02
2018-06-22T02:12:48.570Z,77.92
2018-06-22T02:13:53.296Z,77.90
2018-06-22T02:14:57.995Z,78.67
2018-06-22T02:16:02.815Z,78.33
2018-06-22T02:17:07.600Z,78.07
2018-06-22T02:18:12.364Z,78.23
2018-06-22T02:19:17.140Z,78.33
2018-06-22T02:20:21.850Z,78.26
2018-06-22T02:21:27.561Z,78.17
2018-06-22T02:22:32.252Z,78.00
2018-06-22T02:23:36.969Z,77.91
2018-06-22T02:24:41.714Z,77.95
2018-06-22T02:25:46.429Z,77.55
2018-06-22T02:26:51.130Z,77.81
2018-06-22T02:27:56.145Z,78.31
2018-06-22T02:29:00.999Z,78.36
2018-06-22T02:30:05.737Z,78.42
2018-06-22T02:31:10.498Z,78.24
2018-06-22T02:32:15.246Z,78.17
2018-06-22T02:33:20.907Z,78.20
2018-06-22T02:34:26.125Z,78.02
2018-06-22T02:35:30.839Z,78.29
2018-06-22T02:36:36.042Z,78.10
2018-06-22T02:37:40.775Z,78.08
2018-06-22T02:38:45.514Z,78.13
2018-06-22T02:39:50.249Z,78.08
2018-06-22T02:40:55.516Z,77.94
2018-06-22T02:42:00.177Z,78.31
2018-06-22T02:43:05.518Z,78.18
2018-06-22T02:44:10.112Z,78.31
2018-06-22T02:45:14.703Z,78.48
2018-06-22T02:46:21.166Z,78.29
2018-06-22T02:47:26.098Z,78.48
2018-06-22T02:48:31.296Z,78.61
2018-06-22T02:49:35.881Z,78.21
2018-06-22T02:50:40.578Z,78.38
2018-06-22T02:51:45.197Z,78.44
2018-06-22T02:52:51.192Z,78.01
2018-06-22T02:53:56.079Z,78.48
2018-06-22T02:55:00.704Z,78.82
2018-06-22T02:56:05.274Z,78.80
2018-06-22T02:57:09.849Z,78.83
2018-06-22T02:58:14.454Z,78.51
2018-06-22T02:59:20.319Z,78.85
2018-06-22T03:00:25.175Z,78.97
2018-06-22T03:01:29.761Z,79.09
2018-06-22T03:02:34.513Z,78.49
2018-06-22T03:03:39.237Z,78.94
2018-06-22T03:04:44.631Z,78.58
2018-06-22T03:05:49.353Z,79.40
2018-06-22T03:06:55.305Z,78.92
2018-06-22T03:08:00.049Z,79.01
2018-06-22T03:09:05.955Z,79.84
2018-06-22T03:10:10.646Z,79.12
2018-06-22T03:11:15.420Z,79.35
2018-06-22T03:12:20.125Z,79.56
2018-06-22T03:13:25.190Z,79.40
2018-06-22T03:14:29.833Z,79.54
2018-06-22T03:15:34.467Z,79.60
2018-06-22T03:16:39.132Z,79.70
2018-06-22T03:17:43.735Z,79.69
2018-06-22T03:18:48.323Z,79.73
2018-06-22T03:19:54.476Z,79.84
2018-06-22T03:20:59.071Z,80.13
2018-06-22T03:22:03.705Z,79.72
2018-06-22T03:23:08.376Z,79.41
2018-06-22T03:24:13.025Z,79.71
2018-06-22T03:25:18.135Z,79.81
2018-06-22T03:26:23.273Z,79.48
2018-06-22T03:27:27.973Z,80.06
2018-06-22T03:28:33.147Z,80.19
2018-06-22T03:29:39.152Z,79.86
2018-06-22T03:30:43.830Z,79.92
2018-06-22T03:31:48.605Z,79.71
2018-06-22T03:32:53.607Z,79.68
2018-06-22T03:33:58.297Z,80.20
2018-06-22T03:35:03.030Z,80.14
2018-06-22T03:36:07.733Z,79.95
2018-06-22T03:37:13.468Z,80.00
2018-06-22T03:38:18.209Z,80.03
2018-06-22T03:39:25.061Z,80.33
2018-06-22T03:40:30.668Z,80.14
2018-06-22T03:41:35.646Z,79.53
2018-06-22T03:42:40.399Z,80.51
2018-06-22T03:43:45.495Z,79.90
2018-06-22T03:44:51.121Z,79.82
2018-06-22T03:45:56.396Z,80.29
2018-06-22T03:47:01.109Z,80.23
2018-06-22T03:48:05.946Z,80.61
2018-06-22T03:49:10.782Z,80.62
2018-06-22T03:50:15.522Z,80.53
2018-06-22T03:51:20.231Z,80.75
2018-06-22T03:52:26.055Z,80.30
2018-06-22T03:53:30.835Z,80.51
2018-06-22T03:54:36.445Z,80.88
2018-06-22T03:55:41.047Z,80.54
2018-06-22T03:56:45.676Z,80.83
2018-06-22T03:57:50.277Z,80.60
2018-06-22T03:58:56.296Z,80.81
2018-06-22T04:00:01.026Z,80.52
2018-06-22T04:01:05.706Z,80.63
2018-06-22T04:02:11.066Z,80.76
2018-06-22T04:03:15.638Z,80.29
2018-06-22T04:04:20.288Z,80.58
2018-06-22T04:05:25.309Z,80.42
2018-06-22T04:06:29.975Z,80.23
2018-06-22T04:07:34.571Z,80.50
2018-06-22T04:08:40.108Z,80.64
2018-06-22T04:09:45.357Z,80.58
2018-06-22T04:10:49.989Z,80.64
2018-06-22T04:11:55.659Z,79.70
2018-06-22T04:13:00.408Z,80.30
2018-06-22T04:14:05.253Z,80.26
2018-06-22T04:15:09.909Z,80.03
2018-06-22T04:16:14.486Z,80.39
2018-06-22T04:17:19.063Z,80.04
2018-06-22T04:18:23.942Z,79.87
2018-06-22T04:19:28.523Z,79.97
2018-06-22T04:20:33.140Z,79.67
2018-06-22T04:21:38.393Z,80.00
2018-06-22T04:22:43.232Z,79.76
2018-06-22T04:23:47.860Z,80.06
2018-06-22T04:24:53.340Z,80.12
2018-06-22T04:25:58.965Z,80.02
2018-06-22T04:27:04.349Z,79.74
2018-06-22T04:28:08.969Z,79.83
2018-06-22T04:29:14.891Z,79.82
2018-06-22T04:30:20.290Z,79.95
2018-06-22T04:31:25.854Z,79.84
2018-06-22T04:32:30.722Z,79.74
2018-06-22T04:33:35.377Z,79.46
2018-06-22T04:34:40.014Z,79.46
2018-06-22T04:35:44.640Z,79.19
2018-06-22T04:36:50.462Z,79.32
2018-06-22T04:37:55.156Z,79.38
2018-06-22T04:38:59.796Z,79.35
2018-06-22T04:40:04.547Z,79.47
2018-06-22T04:41:09.344Z,79.51
2018-06-22T04:42:14.769Z,79.16
2018-06-22T04:43:19.756Z,79.73
2018-06-22T04:44:25.283Z,79.42
2018-06-22T04:45:30.851Z,79.49
2018-06-22T04:46:35.633Z,79.63
2018-06-22T04:47:40.651Z,79.26
2018-06-22T04:48:47.669Z,79.25
2018-06-22T04:49:52.633Z,79.30
2018-06-22T04:50:58.052Z,79.58
2018-06-22T04:52:02.664Z,79.04
2018-06-22T04:53:08.499Z,79.11
2018-06-22T04:54:13.228Z,78.90
2018-06-22T04:55:18.385Z,79.53
2018-06-22T04:56:23.497Z,79.29
2018-06-22T04:57:28.642Z,79.54
2018-06-22T04:58:33.493Z,79.50
2018-06-22T04:59:38.259Z,79.00
2018-06-22T05:00:42.974Z,79.44
2018-06-22T05:01:47.970Z,79.26
2018-06-22T05:02:52.715Z,79.15
2018-06-22T05:03:57.518Z,78.96
2018-06-22T05:05:02.300Z,79.23
2018-06-22T05:06:09.982Z,79.26
2018-06-22T05:07:18.361Z,79.39
2018-06-22T05:08:25.254Z,79.29
2018-06-22T05:09:30.664Z,79.26
2018-06-22T05:10:36.259Z,78.55
2018-06-22T05:11:41.617Z,79.14
2018-06-22T05:12:46.400Z,79.19
2018-06-22T05:13:51.495Z,79.24
2018-06-22T05:14:56.220Z,79.05
2018-06-22T05:16:01.002Z,79.29
2018-06-22T05:17:05.797Z,78.58
2018-06-22T05:18:11.103Z,78.92
2018-06-22T05:19:15.854Z,78.41
2018-06-22T05:20:20.915Z,78.70
2018-06-22T05:21:26.629Z,78.76
2018-06-22T05:22:31.695Z,78.85
2018-06-22T05:23:38.081Z,78.62
2018-06-22T05:24:44.001Z,78.58
2018-06-22T05:25:49.185Z,78.26
2018-06-22T05:26:54.490Z,78.75
2018-06-22T05:27:59.654Z,78.51
2018-06-22T05:29:04.553Z,78.30
2018-06-22T05:30:09.846Z,78.80
2018-06-22T05:31:15.479Z,78.26
2018-06-22T05:32:20.794Z,78.37
2018-06-22T05:33:26.573Z,78.27
2018-06-22T05:34:31.349Z,78.77
2018-06-22T05:35:36.267Z,78.47
2018-06-22T05:36:40.986Z,78.85
2018-06-22T05:37:45.713Z,79.09
2018-06-22T05:38:51.399Z,78.48
2018-06-22T05:39:56.098Z,78.85
2018-06-22T05:41:00.780Z,78.48
2018-06-22T05:42:05.481Z,79.05
2018-06-22T05:43:11.237Z,78.70
2018-06-22T05:44:15.815Z,78.99
2018-06-22T05:45:21.697Z,78.93
2018-06-22T05:46:26.287Z,78.38
2018-06-22T05:47:31.571Z,78.93
2018-06-22T05:48:36.480Z,78.84
2018-06-22T05:49:42.991Z,78.71
2018-06-22T05:50:47.782Z,78.66
2018-06-22T05:51:52.704Z,78.25
2018-06-22T05:52:57.294Z,78.48
2018-06-22T05:54:03.304Z,78.54
2018-06-22T05:55:07.893Z,78.39
2018-06-22T05:56:12.619Z,78.51
2018-06-22T05:57:17.782Z,78.54
2018-06-22T05:58:24.309Z,78.51
2018-06-22T05:59:29.670Z,78.97
2018-06-22T06:00:35.272Z,78.71
2018-06-22T06:01:40.067Z,78.56
2018-06-22T06:02:44.825Z,78.35
2018-06-22T06:03:49.615Z,78.34
2018-06-22T06:04:55.633Z,78.65
2018-06-22T06:06:00.309Z,78.49
2018-06-22T06:07:05.352Z,78.46
2018-06-22T06:08:10.882Z,78.02
2018-06-22T06:09:15.606Z,78.42
2018-06-22T06:10:21.283Z,78.27
2018-06-22T06:11:26.385Z,78.62
2018-06-22T06:12:32.562Z,77.84
2018-06-22T06:13:37.293Z,78.18
2018-06-22T06:14:42.127Z,78.15
2018-06-22T06:15:47.020Z,78.07
2018-06-22T06:16:51.743Z,78.43
2018-06-22T06:17:56.838Z,78.41
2018-06-22T06:19:02.460Z,78.46
2018-06-22T06:20:08.827Z,78.46
2018-06-22T06:21:14.345Z,77.77
2018-06-22T06:22:19.445Z,78.30
2018-06-22T06:23:25.239Z,78.15
2018-06-22T06:24:32.168Z,78.18
2018-06-22T06:25:37.699Z,78.23
2018-06-22T06:26:42.688Z,78.00
2018-06-22T06:27:48.789Z,78.10
2018-06-22T06:28:53.487Z,78.15
2018-06-22T06:29:59.109Z,77.92
2018-06-22T06:31:03.854Z,78.48
2018-06-22T06:32:08.569Z,78.35
2018-06-22T06:33:13.304Z,78.43
2018-06-22T06:34:18.085Z,77.95
2018-06-22T06:35:22.873Z,78.25
2018-06-22T06:36:28.761Z,78.47
2018-06-22T06:37:35.741Z,78.58
2018-06-22T06:38:40.471Z,78.33
2018-06-22T06:39:45.253Z,77.99
2018-06-22T06:40:51.041Z,78.58
2018-06-22T06:41:56.059Z,79.00
2018-06-22T06:43:18.214Z,78.34
2018-06-22T06:44:23.815Z,78.40
2018-06-22T06:45:29.084Z,78.74
2018-06-22T06:46:34.625Z,78.43
2018-06-22T06:47:39.481Z,79.13
2018-06-22T06:48:44.139Z,79.31
2018-06-22T06:49:50.250Z,78.71
2018-06-22T06:50:54.943Z,79.18
2018-06-22T06:51:59.639Z,78.92
2018-06-22T06:53:04.283Z,78.75
2018-06-22T06:54:08.867Z,79.45
2018-06-22T06:55:13.505Z,78.86
2018-06-22T06:56:18.590Z,79.03
2018-06-22T06:57:23.259Z,78.81
2018-06-22T06:58:29.221Z,78.68
2018-06-22T06:59:35.027Z,78.59
2018-06-22T07:00:41.159Z,78.60
2018-06-22T07:01:47.451Z,78.47
2018-06-22T07:02:53.865Z,78.73
2018-06-22T07:04:01.389Z,78.24
2018-06-22T07:05:06.980Z,78.49
2018-06-22T07:06:11.980Z,78.24
2018-06-22T07:07:16.925Z,78.64
2018-06-22T07:08:22.043Z,77.77
2018-06-22T07:09:28.581Z,78.55
2018-06-22T07:10:35.167Z,78.02
2018-06-22T07:11:42.175Z,78.08
2018-06-22T07:12:46.827Z,78.04
2018-06-22T07:13:51.475Z,77.93
2018-06-22T07:14:56.997Z,78.06
2018-06-22T07:16:02.299Z,78.12
2018-06-22T07:17:07.998Z,77.67
2018-06-22T07:18:15.827Z,77.79
2018-06-22T07:19:22.249Z,77.79
2018-06-22T07:20:29.660Z,77.81
2018-06-22T07:21:36.058Z,77.79
2018-06-22T07:22:41.276Z,77.67
2018-06-22T07:23:47.674Z,77.62
2018-06-22T07:24:54.819Z,77.53
2018-06-22T07:26:00.827Z,77.78
2018-06-22T07:27:07.071Z,77.82
2018-06-22T07:28:12.062Z,77.43
2018-06-22T07:29:17.339Z,77.40
2018-06-22T07:30:24.821Z,77.16
2018-06-22T07:31:30.837Z,76.93
2018-06-22T07:32:35.606Z,76.72
2018-06-22T07:33:40.334Z,76.01
2018-06-22T07:34:45.771Z,76.48
2018-06-22T07:35:51.648Z,76.49
2018-06-22T07:36:56.664Z,76.06
2018-06-22T07:38:01.350Z,75.60
2018-06-22T07:39:12.601Z,76.14
2018-06-22T07:40:17.765Z,75.49
2018-06-22T07:41:23.290Z,75.84
2018-06-22T07:42:29.565Z,75.47
2018-06-22T07:43:34.422Z,75.61
2018-06-22T07:44:39.108Z,75.18
2018-06-22T07:45:43.777Z,75.50
2018-06-22T07:46:50.377Z,75.31
2018-06-22T07:47:55.041Z,75.35
2018-06-22T07:48:59.631Z,74.86
2018-06-22T07:50:04.272Z,75.00
2018-06-22T07:51:09.804Z,75.16
2018-06-22T07:52:14.609Z,75.13
2018-06-22T07:53:19.694Z,75.00
2018-06-22T07:54:29.363Z,75.12
2018-06-22T07:55:34.229Z,74.65
2018-06-22T07:56:41.646Z,74.41
2018-06-22T07:57:47.059Z,74.69
2018-06-22T07:58:52.397Z,74.98
2018-06-22T07:59:57.641Z,75.09
2018-06-22T08:01:02.447Z,75.27
2018-06-22T08:02:08.319Z,75.09
2018-06-22T08:03:14.340Z,75.35
2018-06-22T08:04:22.584Z,75.42
2018-06-22T08:05:27.287Z,75.15
2018-06-22T08:06:33.466Z,75.60
2018-06-22T08:07:39.257Z,75.20
2018-06-22T08:08:47.473Z,75.33
2018-06-22T08:09:53.324Z,75.31
2018-06-22T08:10:58.326Z,75.34
2018-06-22T08:12:03.837Z,75.33
2018-06-22T08:13:09.465Z,75.51
2018-06-22T08:14:14.196Z,76.36
2018-06-22T08:15:19.391Z,76.31
2018-06-22T08:16:24.735Z,76.89
2018-06-22T08:17:29.357Z,76.95
2018-06-22T08:18:34.429Z,77.03
2018-06-22T08:19:40.058Z,77.75
2018-06-22T08:20:44.818Z,77.79
2018-06-22T08:21:56.362Z,77.72
2018-06-22T08:23:01.545Z,77.76
2018-06-22T08:24:06.168Z,77.87
2018-06-22T08:25:13.800Z,77.64
2018-06-22T08:26:18.478Z,77.70
2018-06-22T08:27:23.853Z,77.94
2018-06-22T08:28:28.751Z,78.11
2018-06-22T08:29:33.497Z,78.00
2018-06-22T08:30:38.223Z,78.00
2018-06-22T08:31:44.356Z,78.09
2018-06-22T08:32:49.403Z,77.62
2018-06-22T08:33:54.261Z,77.79
2018-06-22T08:34:59.150Z,77.68
2018-06-22T08:36:03.928Z,77.89
2018-06-22T08:37:10.268Z,78.05
2018-06-22T08:38:16.322Z,78.20
2018-06-22T08:39:21.051Z,78.30
2018-06-22T08:40:26.575Z,77.99
2018-06-22T08:41:32.107Z,78.10
2018-06-22T08:42:37.379Z,77.72
2018-06-22T08:43:42.146Z,77.80
2018-06-22T08:44:47.052Z,77.66
2018-06-22T08:45:53.376Z,77.90
2018-06-22T08:46:58.579Z,77.45
2018-06-22T08:48:05.741Z,77.42
2018-06-22T08:49:11.968Z,78.01
2018-06-22T08:50:16.591Z,77.77
2018-06-22T08:51:23.497Z,77.85
2018-06-22T08:52:29.034Z,77.97
2018-06-22T08:53:34.342Z,78.62
2018-06-22T08:54:39.251Z,78.59
2018-06-22T08:55:44.118Z,79.06
2018-06-22T08:56:48.954Z,78.75
2018-06-22T08:57:54.264Z,79.40
2018-06-22T08:59:01.430Z,79.94
2018-06-22T09:00:06.197Z,79.79
2018-06-22T09:01:10.898Z,79.70
2018-06-22T09:02:15.527Z,79.88
2018-06-22T09:03:21.050Z,79.99
2018-06-22T09:04:26.098Z,80.06
2018-06-22T09:05:30.757Z,79.96
2018-06-22T09:06:39.460Z,80.11
2018-06-22T09:07:44.366Z,80.21
2018-06-22T09:08:50.462Z,80.38
2018-06-22T09:09:55.791Z,79.97
2018-06-22T09:11:00.875Z,79.93
2018-06-22T09:12:05.645Z,79.90
2018-06-22T09:13:11.169Z,79.90
2018-06-22T09:14:16.450Z,79.40
2018-06-22T09:15:21.216Z,79.35
2018-06-22T09:16:28.843Z,79.21
2018-06-22T09:17:37.349Z,79.12
2018-06-22T09:18:48.387Z,78.13
2018-06-22T09:19:53.085Z,77.73
2018-06-22T09:21:02.993Z,77.84
2018-06-22T09:22:07.736Z,76.54
2018-06-22T09:23:12.993Z,76.29
2018-06-22T09:24:18.232Z,76.50
2018-06-22T09:25:23.835Z,76.53
2018-06-22T09:26:30.267Z,75.89
2018-06-22T09:27:34.895Z,75.76
2018-06-22T09:28:40.092Z,74.94
2018-06-22T09:29:45.314Z,74.86
2018-06-22T09:30:50.413Z,74.77
2018-06-22T09:31:56.075Z,74.18
2018-06-22T09:33:02.946Z,73.88
2018-06-22T09:34:07.639Z,74.44
2018-06-22T09:35:15.043Z,72.90
2018-06-22T09:36:21.022Z,72.74
2018-06-22T09:37:25.692Z,73.02
2018-06-22T09:38:30.306Z,72.45
2018-06-22T09:39:35.584Z,71.85
2018-06-22T09:40:40.253Z,72.29
2018-06-22T09:41:44.878Z,72.38
2018-06-22T09:42:50.189Z,71.85
2018-06-22T09:43:54.817Z,100.00
2018-06-22T09:44:59.611Z,72.45
2018-06-22T09:46:04.344Z,72.41
2018-06-22T09:47:10.309Z,73.07
2018-06-22T09:48:15.755Z,73.04
2018-06-22T09:49:22.312Z,73.02
2018-06-22T09:50:28.307Z,72.70
2018-06-22T09:51:34.186Z,71.73
2018-06-22T09:52:39.659Z,72.05
2018-06-22T09:53:46.983Z,71.59
2018-06-22T09:54:51.717Z,71.39
2018-06-22T09:58:25.362Z,71.75
2018-06-22T09:59:31.028Z,73.65
2018-06-22T10:00:53.367Z,74.33
2018-06-22T10:01:59.145Z,75.42
2018-06-22T10:03:05.814Z,75.42
2018-06-22T10:04:12.275Z,74.65
2018-06-22T10:05:17.708Z,74.52
2018-06-22T10:06:23.698Z,74.28
2018-06-22T10:07:28.563Z,74.16
2018-06-22T10:08:35.287Z,73.77
2018-06-22T10:09:43.818Z,73.53
2018-06-22T10:10:48.721Z,72.94
2018-06-22T10:11:56.304Z,73.21
2018-06-22T10:13:02.039Z,73.21
2018-06-22T10:14:06.680Z,72.50
2018-06-22T10:15:12.852Z,72.84
2018-06-22T10:16:18.908Z,72.68
2018-06-22T10:17:23.590Z,72.68
2018-06-22T10:18:30.298Z,72.68
2018-06-22T10:19:34.956Z,72.59
2018-06-22T10:20:39.622Z,72.11
2018-06-22T10:21:45.447Z,72.02
2018-06-22T10:22:50.343Z,71.54
2018-06-22T10:23:54.993Z,71.25
2018-06-22T10:24:59.782Z,71.28
2018-06-22T10:26:06.074Z,70.71
2018-06-22T10:27:11.755Z,71.00
2018-06-22T10:28:20.601Z,70.87
2018-06-22T10:29:31.826Z,70.22
2018-06-22T10:30:37.092Z,70.73
2018-06-22T10:31:42.549Z,70.48
2018-06-22T10:32:48.280Z,70.73
2018-06-22T10:33:54.606Z,70.06
2018-06-22T10:35:00.817Z,70.67
2018-06-22T10:36:06.482Z,71.03
2018-06-22T10:37:11.594Z,70.43
2018-06-22T10:38:17.266Z,69.56
2018-06-22T10:39:22.003Z,70.25
2018-06-22T10:40:27.375Z,70.82
2018-06-22T10:41:33.694Z,70.04
2018-06-22T10:42:41.099Z,69.83
2018-06-22T10:43:56.929Z,69.12
2018-06-22T10:45:02.978Z,68.33
2018-06-22T10:46:09.396Z,68.05
2018-06-22T10:47:15.084Z,67.67
2018-06-22T10:48:24.066Z,67.39
2018-06-22T10:49:28.808Z,67.32
2018-06-22T10:50:33.754Z,66.90
2018-06-22T10:51:44.435Z,66.33
2018-06-22T10:52:50.387Z,66.17
2018-06-22T10:53:57.354Z,66.08
2018-06-22T10:55:02.157Z,66.38
2018-06-22T10:56:07.019Z,66.26
2018-06-22T10:57:12.769Z,66.16
2018-06-22T10:58:18.624Z,66.78
2018-06-22T10:59:24.047Z,66.89
2018-06-22T11:00:30.357Z,66.82
2018-06-22T11:01:35.021Z,67.51
2018-06-22T11:02:39.709Z,67.81
2018-06-22T11:03:46.299Z,68.09
2018-06-22T11:05:51.261Z,67.84
2018-06-22T11:06:56.274Z,67.51
2018-06-22T11:08:01.292Z,67.74
2018-06-22T11:09:07.970Z,68.00
2018-06-22T11:10:15.022Z,67.53
2018-06-22T11:11:26.007Z,67.17
2018-06-22T11:12:35.538Z,66.91
2018-06-22T11:13:43.802Z,67.21
2018-06-22T11:14:56.813Z,68.10
2018-06-22T11:16:08.815Z,67.41
2018-06-22T11:18:37.271Z,67.56
2018-06-22T11:19:46.077Z,67.09
2018-06-22T11:20:54.910Z,66.72
2018-06-22T11:22:16.035Z,67.24
2018-06-22T11:23:31.082Z,67.57
2018-06-22T11:24:39.034Z,67.34
2018-06-22T11:25:46.810Z,66.96
2018-06-22T11:27:04.272Z,67.56
2018-06-22T11:28:12.291Z,67.25
2018-06-22T11:29:17.291Z,67.57
2018-06-22T11:30:22.557Z,68.00
2018-06-22T11:31:31.425Z,67.89
2018-06-22T11:32:40.496Z,68.30
2018-06-22T11:35:12.384Z,69.00
2018-06-22T11:36:17.090Z,68.72
2018-06-22T11:37:23.722Z,69.31
2018-06-22T11:38:30.770Z,69.47
2018-06-22T11:39:36.142Z,69.41
2018-06-22T11:40:43.508Z,69.69
2018-06-22T11:41:51.725Z,70.26
2018-06-22T11:43:09.271Z,71.02
2018-06-22T11:44:18.608Z,71.85
2018-06-22T11:45:27.429Z,71.70
2018-06-22T11:46:35.195Z,71.95
2018-06-22T11:47:42.237Z,71.62
2018-06-22T11:48:52.685Z,71.57
2018-06-22T11:50:02.476Z,71.52
2018-06-22T11:51:10.999Z,71.49
2018-06-22T11:52:16.489Z,71.70
2018-06-22T11:53:23.542Z,71.28
2018-06-22T11:54:29.647Z,71.06
2018-06-22T11:56:47.559Z,70.94
2018-06-22T11:58:00.065Z,70.72
2018-06-22T11:59:07.273Z,70.00
2018-06-22T12:00:22.561Z,69.48
2018-06-22T12:01:29.965Z,69.38
2018-06-22T12:02:36.047Z,68.89
2018-06-22T12:03:40.634Z,68.54
2018-06-22T12:04:47.995Z,68.01
2018-06-22T12:05:53.357Z,68.30
2018-06-22T12:07:11.797Z,68.60
2018-06-22T12:08:16.989Z,68.94
2018-06-22T12:09:23.046Z,69.10
2018-06-22T12:10:28.467Z,69.50
2018-06-22T12:11:34.471Z,69.89
2018-06-22T12:12:40.135Z,69.79
2018-06-22T12:13:46.327Z,69.72
2018-06-22T12:14:53.754Z,69.81
2018-06-22T12:15:59.393Z,69.78
2018-06-22T12:17:06.830Z,70.03
2018-06-22T12:18:11.516Z,70.13
2018-06-22T12:19:17.751Z,70.14
2018-06-22T12:20:26.546Z,70.20
2018-06-22T12:21:34.126Z,70.25
2018-06-22T12:22:38.804Z,69.93
2018-06-22T12:23:44.427Z,70.29
2018-06-22T12:24:49.130Z,70.37
2018-06-22T12:25:53.866Z,70.91
2018-06-22T12:26:59.057Z,70.66
2018-06-22T12:28:04.207Z,70.21
2018-06-22T12:29:09.473Z,69.76
2018-06-22T12:30:14.543Z,69.83
2018-06-22T12:31:19.146Z,69.72
2018-06-22T12:32:23.781Z,69.84
2018-06-22T12:33:29.252Z,69.36
2018-06-22T12:34:34.647Z,69.12
2018-06-22T12:35:40.240Z,69.04
2018-06-22T12:36:45.448Z,68.66
2018-06-22T12:37:50.493Z,67.96
2018-06-22T12:38:56.687Z,67.76
2018-06-22T12:40:02.343Z,66.85
2018-06-22T12:41:07.138Z,66.90
2018-06-22T12:42:13.497Z,66.79
2018-06-22T12:43:19.412Z,65.69
2018-06-22T12:44:26.286Z,65.19
2018-06-22T12:45:30.988Z,64.73
2018-06-22T12:46:36.021Z,64.22
2018-06-22T12:47:41.582Z,63.95
2018-06-22T12:48:51.229Z,63.42
2018-06-22T12:49:58.481Z,63.52
2018-06-22T12:51:06.580Z,63.20
2018-06-22T12:52:12.377Z,63.20
2018-06-22T12:53:18.185Z,62.48
2018-06-22T12:54:22.857Z,61.91
2018-06-22T12:55:27.472Z,62.02
2018-06-22T12:56:32.064Z,61.75
2018-06-22T12:57:39.838Z,61.89
2018-06-22T12:58:45.999Z,61.75
2018-06-22T12:59:51.295Z,62.05
2018-06-22T13:00:56.533Z,62.17
2018-06-22T13:02:03.414Z,62.70
2018-06-22T13:03:08.828Z,63.21
2018-06-22T13:04:13.906Z,64.03
2018-06-22T13:05:20.017Z,65.17
2018-06-22T13:06:25.186Z,65.73
2018-06-22T13:07:30.347Z,66.49
2018-06-22T13:08:38.188Z,66.69
2018-06-22T13:09:42.832Z,67.22
2018-06-22T13:10:48.012Z,67.79
2018-06-22T13:11:53.618Z,68.39
2018-06-22T13:12:59.531Z,68.93
2018-06-22T13:14:05.488Z,69.03
2018-06-22T13:15:11.363Z,68.79
2018-06-22T13:16:17.740Z,68.59
2018-06-22T13:17:22.668Z,68.99
2018-06-22T13:18:30.247Z,69.40
2018-06-22T13:19:34.879Z,69.25
2018-06-22T13:20:39.716Z,69.79
2018-06-22T13:21:47.290Z,70.01
2018-06-22T13:22:53.324Z,70.19
2018-06-22T13:23:58.852Z,70.97
2018-06-22T13:25:07.663Z,71.34
2018-06-22T13:26:14.767Z,71.22
2018-06-22T13:27:19.754Z,71.01
2018-06-22T13:28:24.834Z,70.97
2018-06-22T13:29:33.010Z,71.37
2018-06-22T13:30:39.000Z,70.62
2018-06-22T13:31:45.668Z,70.73
2018-06-22T13:32:53.461Z,70.52
2018-06-22T13:33:59.515Z,70.29
2018-06-22T13:35:04.563Z,69.95
2018-06-22T13:36:11.363Z,70.16
2018-06-22T13:37:17.050Z,69.70
2018-06-22T13:38:23.170Z,69.80
2018-06-22T13:39:28.814Z,68.83
2018-06-22T13:40:35.362Z,69.42
2018-06-22T13:41:43.031Z,68.62
2018-06-22T13:42:49.525Z,69.00
2018-06-22T13:43:54.608Z,69.18
2018-06-22T13:44:59.338Z,69.37
2018-06-22T13:46:04.975Z,69.93
2018-06-22T13:47:11.504Z,69.84
2018-06-22T13:48:18.223Z,70.28
2018-06-22T13:49:25.814Z,70.81
2018-06-22T13:50:30.561Z,70.87
2018-06-22T13:52:53.861Z,71.66
2018-06-22T13:53:58.834Z,72.02
2018-06-22T13:55:04.682Z,72.59
2018-06-22T13:56:10.371Z,73.42
2018-06-22T13:57:16.742Z,73.78
2018-06-22T13:58:21.527Z,74.70
2018-06-22T13:59:27.414Z,74.96
2018-06-22T14:00:32.283Z,74.95
2018-06-22T14:01:37.397Z,75.22
2018-06-22T14:02:42.510Z,75.88
2018-06-22T14:03:53.078Z,76.01
2018-06-22T14:05:02.574Z,75.88
2018-06-22T14:06:12.125Z,76.41
2018-06-22T14:07:22.102Z,76.44
2018-06-22T14:08:33.398Z,76.52
2018-06-22T14:09:39.776Z,76.50
2018-06-22T14:10:47.474Z,76.76
2018-06-22T14:11:54.391Z,76.91
2018-06-22T14:12:59.077Z,76.61
2018-06-22T14:14:05.061Z,76.33
2018-06-22T14:15:11.670Z,76.06
2018-06-22T14:16:17.121Z,75.71